createdAt,value
2023-03-02T00:02:32.516Z,122.31
2023-03-02T00:05:41.990Z,122.04
2023-03-02T00:08:48.880Z,128.87
2023-03-02T00:11:55.789Z,127.13
2023-03-02T00:15:01.716Z,123.11
2023-03-02T00:18:11.203Z,118.53
2023-03-02T00:21:17.545Z,124.79
2023-03-02T00:24:24.259Z,124.81
2023-03-02T00:27:30.363Z,128.20
2023-03-02T00:30:37.140Z,136.89
2023-03-02T00:33:46.406Z,141.13
2023-03-02T00:36:53.258Z,142.59
2023-03-02T00:39:59.266Z,141.53
2023-03-02T00:43:06.144Z,140.43
2023-03-02T00:46:14.569Z,141.17
2023-03-02T00:49:23.924Z,141.94
2023-03-02T00:52:29.905Z,139.86
2023-03-02T00:55:36.478Z,141.81
2023-03-02T00:58:42.617Z,144.71
2023-03-02T01:01:58.414Z,144.65
2023-03-02T01:05:09.966Z,143.00
2023-03-02T01:08:16.904Z,135.28
2023-03-02T01:11:25.984Z,137.56
2023-03-02T01:14:34.727Z,134.09
2023-03-02T01:17:41.476Z,135.11
2023-03-02T01:20:50.601Z,138.37
2023-03-02T01:23:56.443Z,142.58
2023-03-02T01:27:06.150Z,141.21
2023-03-02T01:30:14.339Z,139.96
2023-03-02T01:33:21.460Z,140.05
2023-03-02T01:36:30.981Z,140.05
2023-03-02T01:39:37.919Z,139.34
2023-03-02T01:43:02.497Z,137.46
2023-03-02T01:46:17.363Z,139.49
2023-03-02T01:49:31.647Z,142.37
2023-03-02T01:52:43.364Z,143.28
2023-03-02T01:55:50.638Z,143.57
2023-03-02T01:59:04.330Z,140.04
2023-03-02T02:02:14.834Z,141.11
2023-03-02T02:05:28.313Z,142.36
2023-03-02T02:08:38.102Z,142.12
2023-03-02T02:11:46.095Z,145.69
2023-03-02T02:14:54.287Z,147.34
2023-03-02T02:18:01.010Z,149.37
2023-03-02T02:21:08.551Z,145.06
2023-03-02T02:24:28.081Z,144.01
2023-03-02T02:27:36.780Z,138.63
2023-03-02T02:30:46.575Z,137.60
2023-03-02T02:34:00.577Z,137.59
2023-03-02T02:37:16.531Z,137.27
2023-03-02T02:40:44.727Z,136.41
2023-03-02T02:43:58.475Z,136.28
2023-03-02T02:47:05.861Z,132.83
2023-03-02T02:50:23.744Z,134.44
2023-03-02T02:53:38.085Z,133.64
2023-03-02T02:56:47.439Z,133.83
2023-03-02T03:00:04.060Z,132.91
2023-03-02T03:03:31.986Z,132.29
2023-03-02T03:06:42.418Z,133.56
2023-03-02T03:10:03.490Z,135.14
2023-03-02T03:13:11.416Z,134.28
2023-03-02T03:16:24.057Z,130.06
2023-03-02T03:19:33.336Z,126.12
2023-03-02T03:22:42.219Z,123.50
2023-03-02T03:25:50.048Z,121.60
2023-03-02T03:28:57.428Z,124.09
2023-03-02T03:32:08.438Z,122.76
2023-03-02T03:35:15.762Z,119.80
2023-03-02T03:38:22.112Z,118.80
2023-03-02T03:41:30.429Z,113.97
2023-03-02T03:44:36.564Z,113.23
2023-03-02T03:47:45.798Z,115.19
2023-03-02T03:50:52.245Z,121.84
2023-03-02T03:54:08.542Z,139.06
2023-03-02T03:57:17.615Z,148.15
2023-03-02T04:00:26.260Z,170.49
2023-03-02T04:03:40.029Z,163.59
2023-03-02T04:06:47.775Z,167.40
2023-03-02T04:10:03.615Z,163.36
2023-03-02T04:13:14.141Z,152.54
2023-03-02T04:16:20.244Z,149.61
2023-03-02T04:19:29.638Z,153.49
2023-03-02T04:22:37.308Z,155.22
2023-03-02T04:25:44.191Z,143.59
2023-03-02T04:28:54.150Z,134.81
2023-03-02T04:32:01.705Z,130.76
2023-03-02T04:35:12.789Z,127.73
2023-03-02T04:38:19.781Z,132.36
2023-03-02T04:41:26.667Z,129.18
2023-03-02T04:44:33.245Z,130.12
2023-03-02T04:47:39.294Z,126.40
2023-03-02T04:50:49.019Z,123.38
2023-03-02T04:53:57.509Z,120.47
2023-03-02T04:57:04.227Z,116.94
2023-03-02T05:00:13.147Z,115.91
2023-03-02T05:03:22.242Z,120.90
2023-03-02T05:06:31.155Z,119.88
2023-03-02T05:09:39.500Z,122.62
2023-03-02T05:12:58.359Z,123.16
2023-03-02T05:16:05.175Z,128.72
2023-03-02T05:19:18.055Z,131.65
2023-03-02T05:22:27.280Z,136.63
2023-03-02T05:25:37.144Z,151.58
2023-03-02T05:28:47.077Z,161.21
2023-03-02T05:31:53.574Z,214.54
2023-03-02T05:35:00.661Z,297.29
2023-03-02T05:38:09.454Z,304.83
2023-03-02T05:41:16.062Z,264.98
2023-03-02T05:44:22.109Z,238.58
2023-03-02T05:47:28.764Z,233.75
2023-03-02T05:50:34.999Z,234.87
2023-03-02T05:53:44.180Z,278.45
2023-03-02T05:56:50.444Z,304.45
2023-03-02T05:59:57.048Z,271.24
2023-03-02T06:03:06.358Z,234.17
2023-03-02T06:06:14.453Z,197.74
2023-03-02T06:09:22.997Z,193.58
2023-03-02T06:12:29.834Z,190.62
2023-03-02T06:15:35.744Z,170.19
2023-03-02T06:18:46.149Z,165.99
2023-03-02T06:21:51.929Z,158.01
2023-03-02T06:25:01.077Z,138.88
2023-03-02T06:28:09.852Z,136.11
2023-03-02T06:31:16.451Z,137.43
2023-03-02T06:34:22.274Z,132.80
2023-03-02T06:37:28.991Z,129.65
2023-03-02T06:40:40.015Z,117.98
2023-03-02T06:43:46.840Z,112.15
2023-03-02T06:46:52.661Z,113.02
2023-03-02T06:49:59.495Z,109.58
2023-03-02T06:53:05.758Z,110.36
2023-03-02T06:56:14.979Z,108.49
2023-03-02T06:59:20.731Z,107.96
2023-03-02T07:02:27.332Z,106.14
2023-03-02T07:05:34.051Z,102.23
2023-03-02T07:08:40.635Z,95.77
2023-03-02T07:11:49.069Z,100.36
2023-03-02T07:14:55.608Z,107.39
2023-03-02T07:18:01.604Z,106.24
2023-03-02T07:21:09.334Z,102.07
2023-03-02T07:24:15.118Z,93.69
2023-03-02T07:27:24.535Z,89.50
2023-03-02T07:30:32.743Z,85.49
2023-03-02T07:33:40.257Z,85.54
2023-03-02T07:36:45.965Z,81.67
2023-03-02T07:39:54.224Z,78.01
2023-03-02T07:43:02.778Z,77.32
2023-03-02T07:46:09.706Z,74.76
2023-03-02T07:49:15.601Z,72.63
2023-03-02T07:52:22.169Z,73.92
2023-03-02T07:55:28.051Z,72.62
2023-03-02T07:58:38.902Z,72.31
2023-03-02T08:01:44.822Z,73.13
2023-03-02T08:04:52.458Z,74.67
2023-03-02T08:07:58.275Z,74.17
2023-03-02T08:11:08.943Z,75.98
2023-03-02T08:14:17.579Z,75.13
2023-03-02T08:17:24.282Z,71.99
2023-03-02T08:20:30.378Z,71.00
2023-03-02T08:23:37.327Z,68.43
2023-03-02T08:26:44.853Z,61.84
2023-03-02T08:29:54.690Z,60.92
2023-03-02T08:33:04.425Z,64.67
2023-03-02T08:36:17.837Z,62.69
2023-03-02T08:39:23.965Z,60.26
2023-03-02T08:42:30.657Z,46.00
2023-03-02T08:45:40.805Z,36.01
2023-03-02T08:48:48.305Z,33.51
2023-03-02T08:51:56.462Z,32.63
2023-03-02T08:55:04.131Z,33.12
2023-03-02T08:58:10.078Z,33.15
2023-03-02T09:01:22.184Z,32.44
2023-03-02T09:04:28.024Z,31.40
2023-03-02T09:07:35.814Z,28.01
2023-03-02T09:10:42.180Z,29.49
2023-03-02T09:13:49.162Z,29.30
2023-03-02T09:16:57.555Z,28.53
2023-03-02T09:20:04.276Z,27.91
2023-03-02T09:23:11.202Z,27.24
2023-03-02T09:26:17.968Z,26.96
2023-03-02T09:29:23.824Z,27.01
2023-03-02T09:32:33.351Z,30.42
2023-03-02T09:35:42.131Z,28.18
2023-03-02T09:38:48.803Z,26.74
2023-03-02T09:42:44.397Z,25.86
2023-03-02T09:46:11.740Z,23.36
2023-03-02T09:49:35.816Z,24.14
2023-03-02T09:52:53.668Z,24.03
2023-03-02T09:56:02.649Z,22.82
2023-03-02T09:59:24.078Z,23.61
2023-03-02T10:02:38.367Z,23.06
2023-03-02T10:05:51.163Z,23.30
2023-03-02T10:08:58.119Z,22.54
2023-03-02T10:12:45.107Z,22.27
2023-03-02T10:16:11.643Z,23.19
2023-03-02T10:19:28.699Z,22.44
2023-03-02T10:22:49.486Z,22.21
2023-03-02T10:26:05.421Z,21.03
2023-03-02T10:29:42.751Z,20.08
2023-03-02T10:32:55.084Z,21.64
2023-03-02T10:36:01.330Z,21.87
2023-03-02T10:39:19.346Z,21.03
2023-03-02T10:42:33.889Z,20.40
2023-03-02T10:45:40.567Z,21.67
2023-03-02T10:48:56.367Z,21.53
2023-03-02T10:52:08.570Z,21.49
2023-03-02T10:55:20.193Z,21.20
2023-03-02T10:58:33.624Z,19.64
2023-03-02T11:01:39.473Z,18.42
2023-03-02T11:04:46.489Z,19.47
2023-03-02T11:07:57.703Z,20.43
2023-03-02T11:11:08.310Z,20.35
2023-03-02T11:14:20.388Z,21.26
2023-03-02T11:17:37.455Z,21.17
2023-03-02T11:20:50.217Z,21.17
2023-03-02T11:24:12.407Z,23.13
2023-03-02T11:27:30.657Z,20.81
2023-03-02T11:30:49.969Z,24.13
2023-03-02T11:34:18.034Z,22.17
2023-03-02T11:37:32.994Z,21.47
2023-03-02T11:40:49.842Z,20.32
2023-03-02T11:44:04.971Z,22.07
2023-03-02T11:47:16.295Z,22.25
2023-03-02T11:50:24.341Z,71.24
2023-03-02T11:53:44.452Z,73.36
2023-03-02T11:56:51.291Z,21.92
2023-03-02T12:00:02.496Z,22.27
2023-03-02T12:03:41.553Z,32.77
2023-03-02T12:06:47.347Z,23.87
2023-03-02T12:10:07.809Z,21.88
2023-03-02T12:13:26.234Z,22.37
2023-03-02T12:16:43.254Z,21.28
2023-03-02T12:19:51.761Z,23.45
2023-03-02T12:23:11.648Z,22.28
2023-03-02T12:26:34.054Z,21.43
2023-03-02T12:29:44.325Z,21.75
2023-03-02T12:33:07.035Z,21.61
2023-03-02T12:36:28.087Z,21.53
2023-03-02T12:40:11.686Z,19.61
2023-03-02T12:43:32.718Z,19.53
2023-03-02T12:46:41.121Z,18.76
2023-03-02T12:50:00.758Z,17.77
2023-03-02T12:53:10.075Z,19.64
2023-03-02T12:56:26.995Z,19.71
2023-03-02T12:59:32.992Z,18.97
2023-03-02T13:02:40.313Z,19.56
2023-03-02T13:05:50.169Z,19.18
2023-03-02T13:09:01.608Z,19.68
2023-03-02T13:12:08.194Z,20.07
2023-03-02T13:15:20.501Z,20.82
2023-03-02T13:18:32.167Z,19.58
2023-03-02T13:21:42.933Z,20.11
2023-03-02T13:24:54.810Z,19.17
2023-03-02T13:28:07.652Z,19.42
2023-03-02T13:31:28.081Z,23.39
2023-03-02T13:34:52.717Z,19.37
2023-03-02T13:38:07.721Z,18.30
2023-03-02T13:41:25.924Z,18.75
2023-03-02T13:44:37.632Z,24.90
2023-03-02T13:47:44.779Z,95.03
2023-03-02T13:51:03.037Z,63.14
2023-03-02T13:54:25.073Z,21.38
2023-03-02T13:57:35.743Z,24.29
2023-03-02T14:00:43.267Z,20.53
2023-03-02T14:03:49.226Z,28.57
2023-03-02T14:06:58.138Z,40.83
2023-03-02T14:10:07.344Z,33.58
2023-03-02T14:13:22.806Z,33.92
2023-03-02T14:16:28.597Z,33.78
2023-03-02T14:19:35.252Z,31.06
2023-03-02T14:22:41.063Z,28.73
2023-03-02T14:25:51.113Z,29.00
2023-03-02T14:29:05.585Z,28.44
2023-03-02T14:32:16.024Z,29.84
2023-03-02T14:35:21.963Z,27.49
2023-03-02T14:38:30.725Z,27.29
2023-03-02T14:41:52.865Z,27.42
2023-03-02T14:45:00.545Z,25.62
2023-03-02T14:48:06.859Z,24.18
2023-03-02T14:51:28.400Z,23.78
2023-03-02T14:54:43.846Z,40.23
2023-03-02T14:58:01.177Z,25.65
2023-03-02T15:01:08.624Z,24.05
2023-03-02T15:04:15.124Z,26.08
2023-03-02T15:07:27.714Z,23.66
2023-03-02T15:10:34.841Z,20.83
2023-03-02T15:13:45.724Z,21.60
2023-03-02T15:16:52.600Z,27.34
2023-03-02T15:19:58.822Z,25.31
2023-03-02T15:23:05.853Z,22.42
2023-03-02T15:26:14.920Z,21.68
2023-03-02T15:29:24.907Z,22.11
2023-03-02T15:32:30.798Z,21.95
2023-03-02T15:35:37.431Z,20.92
2023-03-02T15:38:43.449Z,22.78
2023-03-02T15:41:50.137Z,21.55
2023-03-02T15:44:58.636Z,25.34
2023-03-02T15:48:05.280Z,26.37
2023-03-02T15:51:12.940Z,41.50
2023-03-02T15:54:20.997Z,31.44
2023-03-02T15:57:26.823Z,28.29
2023-03-02T16:00:37.968Z,25.12
2023-03-02T16:03:43.842Z,24.09
2023-03-02T16:06:50.688Z,23.89
2023-03-02T16:09:56.796Z,30.20
2023-03-02T16:13:04.737Z,38.20
2023-03-02T16:16:13.553Z,43.53
2023-03-02T16:19:22.011Z,51.56
2023-03-02T16:22:28.013Z,46.03
2023-03-02T16:25:34.808Z,41.37
2023-03-02T16:28:40.700Z,40.89
2023-03-02T16:31:51.636Z,41.72
2023-03-02T16:34:58.049Z,41.10
2023-03-02T16:38:05.015Z,41.06
2023-03-02T16:41:19.219Z,39.85
2023-03-02T16:44:25.896Z,39.82
2023-03-02T16:47:34.515Z,37.25
2023-03-02T16:50:41.614Z,39.41
2023-03-02T16:53:48.229Z,35.86
2023-03-02T16:56:54.897Z,38.61
2023-03-02T17:00:05.772Z,36.38
2023-03-02T17:03:15.151Z,38.36
2023-03-02T17:06:30.296Z,51.48
2023-03-02T17:09:41.442Z,274.20
2023-03-02T17:12:50.266Z,470.82
2023-03-02T17:15:57.751Z,479.31
2023-03-02T17:19:06.208Z,353.74
2023-03-02T17:22:12.990Z,233.36
2023-03-02T17:25:19.229Z,171.01
2023-03-02T17:28:26.666Z,421.72
2023-03-02T17:31:32.584Z,253.20
2023-03-02T17:34:43.516Z,181.32
2023-03-02T17:37:49.609Z,114.44
2023-03-02T17:40:56.188Z,99.91
2023-03-02T17:44:02.610Z,98.69
2023-03-02T17:47:13.236Z,116.11
2023-03-02T17:50:22.390Z,118.71
2023-03-02T17:53:28.900Z,115.51
2023-03-02T17:56:34.824Z,117.60
2023-03-02T17:59:43.106Z,119.85
2023-03-02T18:02:49.367Z,116.65
2023-03-02T18:05:58.763Z,128.51
2023-03-02T18:09:08.204Z,113.21
2023-03-02T18:12:14.793Z,95.60
2023-03-02T18:15:20.792Z,79.50
2023-03-02T18:18:27.857Z,70.09
2023-03-02T18:21:36.889Z,84.21
2023-03-02T18:24:43.447Z,108.33
2023-03-02T18:27:49.620Z,130.02
2023-03-02T18:30:56.228Z,124.13
2023-03-02T18:34:02.177Z,121.62
2023-03-02T18:37:11.793Z,136.51
2023-03-02T18:40:18.510Z,153.84
2023-03-02T18:43:25.137Z,143.40
2023-03-02T18:46:35.058Z,171.95
2023-03-02T18:49:42.774Z,578.68
2023-03-02T18:52:53.073Z,195.90
2023-03-02T18:55:59.927Z,110.11
2023-03-02T18:59:07.391Z,98.71
2023-03-02T19:02:17.242Z,103.40
2023-03-02T19:05:27.092Z,111.30
2023-03-02T19:08:37.229Z,104.70
2023-03-02T19:11:43.154Z,109.31
2023-03-02T19:14:50.074Z,106.07
2023-03-02T19:17:57.369Z,112.71
2023-03-02T19:21:05.041Z,118.56
2023-03-02T19:24:13.773Z,112.51
2023-03-02T19:27:20.494Z,103.80
2023-03-02T19:30:30.069Z,98.50
2023-03-02T19:33:36.955Z,101.89
2023-03-02T19:36:42.900Z,87.51
2023-03-02T19:39:52.596Z,88.25
2023-03-02T19:42:58.820Z,101.60
2023-03-02T19:46:05.616Z,124.75
2023-03-02T19:49:11.599Z,107.82
2023-03-02T19:52:18.594Z,98.77
2023-03-02T19:55:28.952Z,97.72
2023-03-02T19:58:35.945Z,105.89
2023-03-02T20:01:42.245Z,103.74
2023-03-02T20:04:51.078Z,109.05
2023-03-02T20:07:58.027Z,110.77
2023-03-02T20:11:07.957Z,106.03
2023-03-02T20:14:27.625Z,110.88
2023-03-02T20:17:39.750Z,110.82
2023-03-02T20:20:47.403Z,114.09
2023-03-02T20:23:54.752Z,111.23
2023-03-02T20:27:03.727Z,106.19
2023-03-02T20:30:21.631Z,105.39
2023-03-02T20:33:32.456Z,104.85
2023-03-02T20:36:40.988Z,110.09
2023-03-02T20:39:49.869Z,106.48
2023-03-02T20:42:59.254Z,114.11
2023-03-02T20:46:05.969Z,105.89
2023-03-02T20:49:15.992Z,119.98
2023-03-02T20:52:21.830Z,123.79
2023-03-02T20:55:29.822Z,135.32
2023-03-02T20:58:41.315Z,123.69
2023-03-02T21:01:48.185Z,112.65
2023-03-02T21:04:54.429Z,112.96
2023-03-02T21:08:01.608Z,112.09
2023-03-02T21:11:08.098Z,110.18
2023-03-02T21:14:17.565Z,119.46
2023-03-02T21:17:24.471Z,116.12
2023-03-02T21:20:36.040Z,122.70
2023-03-02T21:23:42.747Z,170.13
2023-03-02T21:26:52.279Z,160.32
2023-03-02T21:30:03.456Z,155.89
2023-03-02T21:33:10.572Z,177.88
2023-03-02T21:36:22.360Z,161.64
2023-03-02T21:39:29.444Z,155.45
2023-03-02T21:42:35.317Z,169.16
2023-03-02T21:45:45.300Z,154.81
2023-03-02T21:48:53.625Z,142.36
2023-03-02T21:52:00.756Z,144.36
2023-03-02T21:55:06.976Z,143.55
2023-03-02T21:58:13.637Z,140.22
2023-03-02T22:01:22.251Z,146.49
2023-03-02T22:04:28.939Z,139.24
2023-03-02T22:07:35.075Z,129.64
2023-03-02T22:10:45.631Z,128.76
2023-03-02T22:13:54.077Z,131.54
2023-03-02T22:17:03.695Z,133.01
2023-03-02T22:20:20.596Z,138.87
2023-03-02T22:23:29.431Z,132.35
2023-03-02T22:26:35.851Z,147.44
2023-03-02T22:29:46.859Z,130.95
2023-03-02T22:32:58.385Z,125.72
2023-03-02T22:36:19.118Z,124.22
2023-03-02T22:39:36.355Z,124.62
2023-03-02T22:42:44.036Z,129.79
2023-03-02T22:45:51.195Z,131.36
2023-03-02T22:49:02.606Z,134.94
2023-03-02T22:52:21.170Z,135.32
2023-03-02T22:55:45.137Z,136.07
2023-03-02T22:58:53.739Z,136.88
2023-03-02T23:02:05.435Z,134.87
2023-03-02T23:05:29.846Z,134.39
2023-03-02T23:08:36.598Z,133.83
2023-03-02T23:11:45.118Z,139.73
2023-03-02T23:14:54.546Z,139.22
2023-03-02T23:18:01.608Z,143.10
2023-03-02T23:21:24.174Z,130.60
2023-03-02T23:24:30.125Z,131.08
2023-03-02T23:27:36.790Z,133.23
2023-03-02T23:30:42.763Z,131.04
2023-03-02T23:33:55.808Z,127.78
2023-03-02T23:37:10.240Z,119.42
2023-03-02T23:40:23.101Z,113.80
2023-03-02T23:43:29.266Z,113.30
2023-03-02T23:46:36.714Z,112.86
2023-03-02T23:49:42.617Z,109.68
2023-03-02T23:52:51.858Z,108.68
2023-03-02T23:55:58.815Z,118.37
2023-03-02T23:59:05.545Z,117.94
